sensor_id;sensor_type;location;lat;lon;timestamp;P1;durP1;ratioP1;P2;durP2;ratioP2
12165;SDS011;6146;48.128;11.476;2023-01-28T00:01:07;19.60;;;13.77;;
12165;SDS011;6146;48.128;11.476;2023-01-28T00:03:34;17.73;;;12.93;;
12165;SDS011;6146;48.128;11.476;2023-01-28T00:06:01;18.43;;;13.53;;
12165;SDS011;6146;48.128;11.476;2023-01-28T00:08:31;19.57;;;13.97;;
12165;SDS011;6146;48.128;11.476;2023-01-28T00:10:58;21.27;;;14.83;;
12165;SDS011;6146;48.128;11.476;2023-01-28T00:13:28;19.13;;;14.30;;
12165;SDS011;6146;48.128;11.476;2023-01-28T00:15:55;19.93;;;14.73;;
12165;SDS011;6146;48.128;11.476;2023-01-28T00:18:21;19.97;;;14.97;;
12165;SDS011;6146;48.128;11.476;2023-01-28T00:21:00;19.07;;;14.30;;
12165;SDS011;6146;48.128;11.476;2023-01-28T00:23:28;18.73;;;13.80;;
12165;SDS011;6146;48.128;11.476;2023-01-28T00:25:59;18.93;;;14.07;;
12165;SDS011;6146;48.128;11.476;2023-01-28T00:28:25;19.20;;;14.07;;
12165;SDS011;6146;48.128;11.476;2023-01-28T00:30:51;21.30;;;14.87;;
12165;SDS011;6146;48.128;11.476;2023-01-28T00:33:16;19.87;;;14.57;;
12165;SDS011;6146;48.128;11.476;2023-01-28T00:35:42;20.00;;;14.67;;
12165;SDS011;6146;48.128;11.476;2023-01-28T00:38:08;19.77;;;14.40;;
12165;SDS011;6146;48.128;11.476;2023-01-28T00:40:34;22.37;;;14.90;;
12165;SDS011;6146;48.128;11.476;2023-01-28T00:43:00;21.03;;;15.17;;
12165;SDS011;6146;48.128;11.476;2023-01-28T00:45:26;20.00;;;14.77;;
12165;SDS011;6146;48.128;11.476;2023-01-28T00:47:51;21.00;;;15.17;;
12165;SDS011;6146;48.128;11.476;2023-01-28T00:50:17;21.00;;;15.17;;
12165;SDS011;6146;48.128;11.476;2023-01-28T00:52:44;21.70;;;15.23;;
12165;SDS011;6146;48.128;11.476;2023-01-28T00:55:09;21.53;;;15.87;;
12165;SDS011;6146;48.128;11.476;2023-01-28T00:57:35;19.73;;;14.60;;
12165;SDS011;6146;48.128;11.476;2023-01-28T01:00:00;24.23;;;15.60;;
12165;SDS011;6146;48.128;11.476;2023-01-28T01:02:26;22.00;;;15.63;;
12165;SDS011;6146;48.128;11.476;2023-01-28T01:04:51;22.90;;;16.50;;
12165;SDS011;6146;48.128;11.476;2023-01-28T01:07:23;21.07;;;15.40;;
12165;SDS011;6146;48.128;11.476;2023-01-28T01:10:00;21.80;;;15.10;;
12165;SDS011;6146;48.128;11.476;2023-01-28T01:12:26;20.67;;;15.13;;
12165;SDS011;6146;48.128;11.476;2023-01-28T01:14:52;20.13;;;14.47;;
12165;SDS011;6146;48.128;11.476;2023-01-28T01:17:17;19.27;;;14.80;;
12165;SDS011;6146;48.128;11.476;2023-01-28T01:19:44;21.67;;;15.33;;
12165;SDS011;6146;48.128;11.476;2023-01-28T01:22:09;26.17;;;15.87;;
12165;SDS011;6146;48.128;11.476;2023-01-28T01:24:35;22.53;;;15.97;;
12165;SDS011;6146;48.128;11.476;2023-01-28T01:27:00;20.77;;;14.87;;
12165;SDS011;6146;48.128;11.476;2023-01-28T01:29:26;22.70;;;15.57;;
12165;SDS011;6146;48.128;11.476;2023-01-28T01:31:51;21.03;;;15.70;;
12165;SDS011;6146;48.128;11.476;2023-01-28T01:34:17;20.23;;;15.10;;
12165;SDS011;6146;48.128;11.476;2023-01-28T01:36:43;24.30;;;16.90;;
12165;SDS011;6146;48.128;11.476;2023-01-28T01:39:10;21.87;;;15.37;;
12165;SDS011;6146;48.128;11.476;2023-01-28T01:41:37;20.00;;;14.77;;
12165;SDS011;6146;48.128;11.476;2023-01-28T01:44:03;21.10;;;14.80;;
12165;SDS011;6146;48.128;11.476;2023-01-28T01:46:41;24.20;;;16.03;;
12165;SDS011;6146;48.128;11.476;2023-01-28T01:51:41;20.90;;;14.43;;
12165;SDS011;6146;48.128;11.476;2023-01-28T01:54:10;19.93;;;14.50;;
12165;SDS011;6146;48.128;11.476;2023-01-28T01:56:37;22.23;;;15.03;;
12165;SDS011;6146;48.128;11.476;2023-01-28T01:59:09;22.33;;;15.13;;
12165;SDS011;6146;48.128;11.476;2023-01-28T02:01:38;21.57;;;14.37;;
12165;SDS011;6146;48.128;11.476;2023-01-28T02:04:07;21.63;;;15.37;;
12165;SDS011;6146;48.128;11.476;2023-01-28T02:06:35;22.33;;;15.40;;
12165;SDS011;6146;48.128;11.476;2023-01-28T02:09:05;21.63;;;15.33;;
12165;SDS011;6146;48.128;11.476;2023-01-28T02:11:32;22.70;;;15.10;;
12165;SDS011;6146;48.128;11.476;2023-01-28T02:13:59;24.40;;;15.73;;
12165;SDS011;6146;48.128;11.476;2023-01-28T02:16:27;22.67;;;15.80;;
12165;SDS011;6146;48.128;11.476;2023-01-28T02:18:54;22.07;;;15.03;;
12165;SDS011;6146;48.128;11.476;2023-01-28T02:32:14;19.73;;;13.90;;
12165;SDS011;6146;48.128;11.476;2023-01-28T02:34:53;21.20;;;15.47;;
12165;SDS011;6146;48.128;11.476;2023-01-28T02:37:26;22.33;;;14.47;;
12165;SDS011;6146;48.128;11.476;2023-01-28T02:40:05;21.30;;;15.17;;
12165;SDS011;6146;48.128;11.476;2023-01-28T02:42:35;22.27;;;15.37;;
12165;SDS011;6146;48.128;11.476;2023-01-28T02:45:11;21.80;;;14.77;;
12165;SDS011;6146;48.128;11.476;2023-01-28T02:47:46;22.00;;;15.77;;
12165;SDS011;6146;48.128;11.476;2023-01-28T02:50:25;22.13;;;14.90;;
12165;SDS011;6146;48.128;11.476;2023-01-28T02:53:10;22.77;;;14.20;;
12165;SDS011;6146;48.128;11.476;2023-01-28T03:02:29;20.63;;;14.47;;
12165;SDS011;6146;48.128;11.476;2023-01-28T03:07:30;23.83;;;14.63;;
12165;SDS011;6146;48.128;11.476;2023-01-28T03:09:58;22.30;;;14.50;;
12165;SDS011;6146;48.128;11.476;2023-01-28T03:12:28;20.63;;;15.20;;
12165;SDS011;6146;48.128;11.476;2023-01-28T03:15:14;19.70;;;14.10;;
12165;SDS011;6146;48.128;11.476;2023-01-28T03:24:14;19.50;;;14.43;;
12165;SDS011;6146;48.128;11.476;2023-01-28T03:27:18;21.63;;;14.10;;
12165;SDS011;6146;48.128;11.476;2023-01-28T03:33:30;20.10;;;13.07;;
12165;SDS011;6146;48.128;11.476;2023-01-28T03:36:16;20.17;;;14.90;;
12165;SDS011;6146;48.128;11.476;2023-01-28T03:39:00;18.77;;;13.43;;
12165;SDS011;6146;48.128;11.476;2023-01-28T03:41:26;21.77;;;13.67;;
12165;SDS011;6146;48.128;11.476;2023-01-28T03:43:52;20.73;;;14.27;;
12165;SDS011;6146;48.128;11.476;2023-01-28T03:46:18;20.97;;;15.93;;
12165;SDS011;6146;48.128;11.476;2023-01-28T03:48:44;18.80;;;13.87;;
12165;SDS011;6146;48.128;11.476;2023-01-28T03:51:10;21.77;;;14.03;;
12165;SDS011;6146;48.128;11.476;2023-01-28T03:53:36;20.50;;;14.37;;
12165;SDS011;6146;48.128;11.476;2023-01-28T03:56:03;23.00;;;16.13;;
12165;SDS011;6146;48.128;11.476;2023-01-28T03:58:29;23.60;;;15.67;;
12165;SDS011;6146;48.128;11.476;2023-01-28T04:01:13;23.50;;;15.57;;
12165;SDS011;6146;48.128;11.476;2023-01-28T04:03:38;23.43;;;15.50;;
12165;SDS011;6146;48.128;11.476;2023-01-28T04:06:05;23.07;;;15.30;;
12165;SDS011;6146;48.128;11.476;2023-01-28T04:08:33;21.90;;;15.23;;
12165;SDS011;6146;48.128;11.476;2023-01-28T04:10:59;22.60;;;14.87;;
12165;SDS011;6146;48.128;11.476;2023-01-28T04:13:39;20.20;;;14.37;;
12165;SDS011;6146;48.128;11.476;2023-01-28T04:16:06;20.33;;;14.93;;
12165;SDS011;6146;48.128;11.476;2023-01-28T04:18:32;22.90;;;14.93;;
12165;SDS011;6146;48.128;11.476;2023-01-28T04:20:58;23.80;;;15.37;;
12165;SDS011;6146;48.128;11.476;2023-01-28T04:23:23;20.10;;;14.63;;
12165;SDS011;6146;48.128;11.476;2023-01-28T04:25:49;24.27;;;15.80;;
12165;SDS011;6146;48.128;11.476;2023-01-28T04:28:15;19.77;;;14.47;;
12165;SDS011;6146;48.128;11.476;2023-01-28T04:30:41;20.77;;;13.97;;
12165;SDS011;6146;48.128;11.476;2023-01-28T04:33:06;20.77;;;14.10;;
12165;SDS011;6146;48.128;11.476;2023-01-28T04:35:32;21.03;;;15.00;;
12165;SDS011;6146;48.128;11.476;2023-01-28T04:37:58;21.87;;;14.73;;
12165;SDS011;6146;48.128;11.476;2023-01-28T04:40:23;20.90;;;14.80;;
12165;SDS011;6146;48.128;11.476;2023-01-28T04:42:52;19.93;;;14.13;;
12165;SDS011;6146;48.128;11.476;2023-01-28T04:45:19;21.57;;;14.03;;
12165;SDS011;6146;48.128;11.476;2023-01-28T04:47:45;21.93;;;13.67;;
12165;SDS011;6146;48.128;11.476;2023-01-28T04:50:10;20.10;;;14.70;;
12165;SDS011;6146;48.128;11.476;2023-01-28T04:52:36;22.27;;;15.37;;
12165;SDS011;6146;48.128;11.476;2023-01-28T04:55:02;19.13;;;14.13;;
12165;SDS011;6146;48.128;11.476;2023-01-28T04:57:27;21.57;;;14.63;;
12165;SDS011;6146;48.128;11.476;2023-01-28T04:59:53;20.27;;;14.00;;
12165;SDS011;6146;48.128;11.476;2023-01-28T05:02:19;20.27;;;14.53;;
12165;SDS011;6146;48.128;11.476;2023-01-28T05:04:44;19.10;;;13.80;;
12165;SDS011;6146;48.128;11.476;2023-01-28T05:07:10;22.33;;;14.53;;
12165;SDS011;6146;48.128;11.476;2023-01-28T05:09:35;21.50;;;14.70;;
12165;SDS011;6146;48.128;11.476;2023-01-28T05:12:01;20.10;;;14.13;;
12165;SDS011;6146;48.128;11.476;2023-01-28T05:14:27;21.27;;;14.83;;
12165;SDS011;6146;48.128;11.476;2023-01-28T05:16:52;20.83;;;14.57;;
12165;SDS011;6146;48.128;11.476;2023-01-28T05:19:18;22.70;;;14.73;;
12165;SDS011;6146;48.128;11.476;2023-01-28T05:21:43;20.80;;;13.77;;
12165;SDS011;6146;48.128;11.476;2023-01-28T05:24:09;21.53;;;15.07;;
12165;SDS011;6146;48.128;11.476;2023-01-28T05:26:34;19.27;;;13.87;;
12165;SDS011;6146;48.128;11.476;2023-01-28T05:29:01;21.50;;;14.60;;
12165;SDS011;6146;48.128;11.476;2023-01-28T05:31:27;19.63;;;14.00;;
12165;SDS011;6146;48.128;11.476;2023-01-28T05:33:52;18.67;;;14.03;;
12165;SDS011;6146;48.128;11.476;2023-01-28T05:36:18;19.37;;;13.30;;
12165;SDS011;6146;48.128;11.476;2023-01-28T05:38:44;20.63;;;13.03;;
12165;SDS011;6146;48.128;11.476;2023-01-28T05:41:09;19.77;;;13.37;;
12165;SDS011;6146;48.128;11.476;2023-01-28T05:43:35;17.80;;;13.37;;
12165;SDS011;6146;48.128;11.476;2023-01-28T05:46:00;22.60;;;14.43;;
12165;SDS011;6146;48.128;11.476;2023-01-28T05:48:26;20.37;;;14.67;;
12165;SDS011;6146;48.128;11.476;2023-01-28T05:50:52;20.70;;;14.27;;
12165;SDS011;6146;48.128;11.476;2023-01-28T05:53:17;21.27;;;14.20;;
12165;SDS011;6146;48.128;11.476;2023-01-28T05:55:46;17.37;;;13.17;;
12165;SDS011;6146;48.128;11.476;2023-01-28T05:58:13;19.17;;;13.50;;
12165;SDS011;6146;48.128;11.476;2023-01-28T06:00:38;20.63;;;13.23;;
12165;SDS011;6146;48.128;11.476;2023-01-28T06:03:04;19.37;;;14.03;;
12165;SDS011;6146;48.128;11.476;2023-01-28T06:05:29;20.60;;;13.73;;
12165;SDS011;6146;48.128;11.476;2023-01-28T06:07:55;21.37;;;14.07;;
12165;SDS011;6146;48.128;11.476;2023-01-28T06:10:20;19.80;;;14.67;;
12165;SDS011;6146;48.128;11.476;2023-01-28T06:12:46;20.03;;;14.43;;
12165;SDS011;6146;48.128;11.476;2023-01-28T06:15:12;20.50;;;14.20;;
12165;SDS011;6146;48.128;11.476;2023-01-28T06:17:38;23.33;;;14.20;;
12165;SDS011;6146;48.128;11.476;2023-01-28T06:20:03;18.57;;;13.37;;
12165;SDS011;6146;48.128;11.476;2023-01-28T06:22:29;18.23;;;13.17;;
12165;SDS011;6146;48.128;11.476;2023-01-28T06:24:55;18.50;;;12.97;;
12165;SDS011;6146;48.128;11.476;2023-01-28T06:27:20;18.17;;;13.30;;
12165;SDS011;6146;48.128;11.476;2023-01-28T06:29:46;17.57;;;12.30;;
12165;SDS011;6146;48.128;11.476;2023-01-28T06:32:11;18.83;;;12.43;;
12165;SDS011;6146;48.128;11.476;2023-01-28T06:34:37;17.77;;;12.33;;
12165;SDS011;6146;48.128;11.476;2023-01-28T06:37:03;14.47;;;11.63;;
12165;SDS011;6146;48.128;11.476;2023-01-28T06:39:28;17.23;;;12.53;;
12165;SDS011;6146;48.128;11.476;2023-01-28T06:41:57;16.70;;;11.80;;
12165;SDS011;6146;48.128;11.476;2023-01-28T06:44:22;17.73;;;12.77;;
12165;SDS011;6146;48.128;11.476;2023-01-28T06:46:48;15.87;;;11.77;;
12165;SDS011;6146;48.128;11.476;2023-01-28T06:49:14;22.93;;;12.53;;
12165;SDS011;6146;48.128;11.476;2023-01-28T06:51:39;15.73;;;12.03;;
12165;SDS011;6146;48.128;11.476;2023-01-28T06:54:05;17.20;;;12.73;;
12165;SDS011;6146;48.128;11.476;2023-01-28T06:56:31;15.97;;;11.67;;
12165;SDS011;6146;48.128;11.476;2023-01-28T06:58:56;16.63;;;12.57;;
12165;SDS011;6146;48.128;11.476;2023-01-28T07:01:22;17.90;;;13.03;;
12165;SDS011;6146;48.128;11.476;2023-01-28T07:03:47;16.03;;;12.77;;
12165;SDS011;6146;48.128;11.476;2023-01-28T07:06:13;19.73;;;13.47;;
12165;SDS011;6146;48.128;11.476;2023-01-28T07:08:38;19.90;;;13.30;;
12165;SDS011;6146;48.128;11.476;2023-01-28T07:11:05;17.93;;;12.87;;
12165;SDS011;6146;48.128;11.476;2023-01-28T07:13:31;18.67;;;13.20;;
12165;SDS011;6146;48.128;11.476;2023-01-28T07:15:57;18.57;;;13.47;;
12165;SDS011;6146;48.128;11.476;2023-01-28T07:18:22;16.77;;;13.43;;
12165;SDS011;6146;48.128;11.476;2023-01-28T07:20:48;19.10;;;13.13;;
12165;SDS011;6146;48.128;11.476;2023-01-28T07:23:14;18.13;;;13.20;;
12165;SDS011;6146;48.128;11.476;2023-01-28T07:25:39;19.97;;;14.07;;
12165;SDS011;6146;48.128;11.476;2023-01-28T07:28:05;18.30;;;13.60;;
12165;SDS011;6146;48.128;11.476;2023-01-28T07:30:31;17.30;;;12.73;;
12165;SDS011;6146;48.128;11.476;2023-01-28T07:32:57;19.97;;;14.10;;
12165;SDS011;6146;48.128;11.476;2023-01-28T07:35:23;16.20;;;11.97;;
12165;SDS011;6146;48.128;11.476;2023-01-28T07:37:54;17.93;;;12.77;;
12165;SDS011;6146;48.128;11.476;2023-01-28T07:40:20;17.97;;;12.90;;
12165;SDS011;6146;48.128;11.476;2023-01-28T07:42:47;19.63;;;13.47;;
12165;SDS011;6146;48.128;11.476;2023-01-28T07:45:13;19.37;;;13.57;;
12165;SDS011;6146;48.128;11.476;2023-01-28T07:47:38;18.63;;;12.40;;
12165;SDS011;6146;48.128;11.476;2023-01-28T07:50:04;17.40;;;12.47;;
12165;SDS011;6146;48.128;11.476;2023-01-28T07:52:30;18.43;;;13.17;;
12165;SDS011;6146;48.128;11.476;2023-01-28T07:55:02;21.23;;;14.57;;
12165;SDS011;6146;48.128;11.476;2023-01-28T07:57:27;17.77;;;13.87;;
12165;SDS011;6146;48.128;11.476;2023-01-28T07:59:54;17.70;;;12.23;;
12165;SDS011;6146;48.128;11.476;2023-01-28T08:02:19;17.53;;;12.33;;
12165;SDS011;6146;48.128;11.476;2023-01-28T08:04:45;17.90;;;12.23;;
12165;SDS011;6146;48.128;11.476;2023-01-28T08:07:11;18.87;;;12.47;;
12165;SDS011;6146;48.128;11.476;2023-01-28T08:09:36;17.97;;;13.37;;
12165;SDS011;6146;48.128;11.476;2023-01-28T08:12:02;15.73;;;11.80;;
12165;SDS011;6146;48.128;11.476;2023-01-28T08:14:28;17.27;;;12.37;;
12165;SDS011;6146;48.128;11.476;2023-01-28T08:16:53;18.53;;;13.67;;
12165;SDS011;6146;48.128;11.476;2023-01-28T08:19:19;19.33;;;12.67;;
12165;SDS011;6146;48.128;11.476;2023-01-28T08:21:49;19.33;;;13.27;;
12165;SDS011;6146;48.128;11.476;2023-01-28T08:24:15;21.97;;;13.77;;
12165;SDS011;6146;48.128;11.476;2023-01-28T08:26:41;18.27;;;13.37;;
12165;SDS011;6146;48.128;11.476;2023-01-28T08:29:07;17.80;;;12.77;;
12165;SDS011;6146;48.128;11.476;2023-01-28T08:31:33;17.53;;;12.07;;
12165;SDS011;6146;48.128;11.476;2023-01-28T08:33:58;16.37;;;12.13;;
12165;SDS011;6146;48.128;11.476;2023-01-28T08:36:24;16.10;;;11.53;;
12165;SDS011;6146;48.128;11.476;2023-01-28T08:38:53;16.13;;;11.70;;
12165;SDS011;6146;48.128;11.476;2023-01-28T08:41:21;16.23;;;11.77;;
12165;SDS011;6146;48.128;11.476;2023-01-28T08:43:47;18.63;;;12.67;;
12165;SDS011;6146;48.128;11.476;2023-01-28T08:46:13;17.30;;;12.20;;
12165;SDS011;6146;48.128;11.476;2023-01-28T08:48:39;15.70;;;11.93;;
12165;SDS011;6146;48.128;11.476;2023-01-28T08:51:05;16.03;;;11.80;;
12165;SDS011;6146;48.128;11.476;2023-01-28T08:53:31;16.17;;;11.73;;
12165;SDS011;6146;48.128;11.476;2023-01-28T08:55:56;15.30;;;10.83;;
12165;SDS011;6146;48.128;11.476;2023-01-28T08:58:22;12.87;;;10.77;;
12165;SDS011;6146;48.128;11.476;2023-01-28T09:00:47;18.53;;;11.87;;
12165;SDS011;6146;48.128;11.476;2023-01-28T09:03:13;16.83;;;11.90;;
12165;SDS011;6146;48.128;11.476;2023-01-28T09:05:39;16.17;;;11.83;;
12165;SDS011;6146;48.128;11.476;2023-01-28T09:08:06;16.37;;;11.30;;
12165;SDS011;6146;48.128;11.476;2023-01-28T09:10:36;14.80;;;10.93;;
12165;SDS011;6146;48.128;11.476;2023-01-28T09:13:06;15.50;;;11.20;;
12165;SDS011;6146;48.128;11.476;2023-01-28T09:15:32;16.60;;;11.13;;
12165;SDS011;6146;48.128;11.476;2023-01-28T09:17:59;14.13;;;11.27;;
12165;SDS011;6146;48.128;11.476;2023-01-28T09:20:25;13.30;;;9.90;;
12165;SDS011;6146;48.128;11.476;2023-01-28T09:22:51;13.80;;;10.37;;
12165;SDS011;6146;48.128;11.476;2023-01-28T09:25:16;15.83;;;11.10;;
12165;SDS011;6146;48.128;11.476;2023-01-28T09:27:42;13.83;;;11.03;;
12165;SDS011;6146;48.128;11.476;2023-01-28T09:30:08;14.83;;;10.63;;
12165;SDS011;6146;48.128;11.476;2023-01-28T09:32:34;14.63;;;11.17;;
12165;SDS011;6146;48.128;11.476;2023-01-28T09:35:00;15.10;;;10.30;;
12165;SDS011;6146;48.128;11.476;2023-01-28T09:37:26;14.93;;;11.23;;
12165;SDS011;6146;48.128;11.476;2023-01-28T09:39:51;15.57;;;11.27;;
12165;SDS011;6146;48.128;11.476;2023-01-28T09:45:03;15.77;;;11.07;;
12165;SDS011;6146;48.128;11.476;2023-01-28T09:47:45;15.27;;;10.73;;
12165;SDS011;6146;48.128;11.476;2023-01-28T09:50:27;15.50;;;11.20;;
12165;SDS011;6146;48.128;11.476;2023-01-28T09:53:00;15.23;;;11.37;;
12165;SDS011;6146;48.128;11.476;2023-01-28T09:55:54;13.07;;;10.40;;
12165;SDS011;6146;48.128;11.476;2023-01-28T09:58:21;14.10;;;10.07;;
12165;SDS011;6146;48.128;11.476;2023-01-28T10:22:38;12.73;;;10.13;;
12165;SDS011;6146;48.128;11.476;2023-01-28T10:25:19;12.50;;;10.10;;
12165;SDS011;6146;48.128;11.476;2023-01-28T10:27:47;13.53;;;10.30;;
12165;SDS011;6146;48.128;11.476;2023-01-28T10:30:16;13.23;;;10.20;;
12165;SDS011;6146;48.128;11.476;2023-01-28T10:32:50;13.50;;;10.33;;
12165;SDS011;6146;48.128;11.476;2023-01-28T10:35:37;13.80;;;10.37;;
12165;SDS011;6146;48.128;11.476;2023-01-28T10:38:05;14.03;;;10.40;;
12165;SDS011;6146;48.128;11.476;2023-01-28T10:40:33;14.27;;;10.83;;
12165;SDS011;6146;48.128;11.476;2023-01-28T10:43:00;12.20;;;10.20;;
12165;SDS011;6146;48.128;11.476;2023-01-28T10:45:27;13.57;;;10.53;;
12165;SDS011;6146;48.128;11.476;2023-01-28T10:50:59;21.17;;;14.20;;
12165;SDS011;6146;48.128;11.476;2023-01-28T10:53:35;14.73;;;11.07;;
12165;SDS011;6146;48.128;11.476;2023-01-28T10:56:03;13.13;;;10.83;;
12165;SDS011;6146;48.128;11.476;2023-01-28T10:58:36;11.13;;;9.53;;
12165;SDS011;6146;48.128;11.476;2023-01-28T11:01:41;12.37;;;9.57;;
12165;SDS011;6146;48.128;11.476;2023-01-28T11:04:58;13.43;;;10.23;;
12165;SDS011;6146;48.128;11.476;2023-01-28T11:07:13;11.67;;;9.33;;
12165;SDS011;6146;48.128;11.476;2023-01-28T11:09:44;11.43;;;9.57;;
12165;SDS011;6146;48.128;11.476;2023-01-28T11:17:21;11.57;;;9.00;;
12165;SDS011;6146;48.128;11.476;2023-01-28T11:19:54;12.60;;;9.53;;
12165;SDS011;6146;48.128;11.476;2023-01-28T11:24:51;13.13;;;9.87;;
12165;SDS011;6146;48.128;11.476;2023-01-28T11:27:17;10.37;;;8.97;;
12165;SDS011;6146;48.128;11.476;2023-01-28T11:29:50;11.10;;;8.87;;
12165;SDS011;6146;48.128;11.476;2023-01-28T11:32:18;11.33;;;8.83;;
12165;SDS011;6146;48.128;11.476;2023-01-28T11:34:51;11.57;;;8.80;;
12165;SDS011;6146;48.128;11.476;2023-01-28T11:37:22;10.67;;;8.90;;
12165;SDS011;6146;48.128;11.476;2023-01-28T11:40:02;11.97;;;9.93;;
12165;SDS011;6146;48.128;11.476;2023-01-28T11:42:45;12.17;;;9.83;;
12165;SDS011;6146;48.128;11.476;2023-01-28T11:45:16;14.43;;;11.50;;
12165;SDS011;6146;48.128;11.476;2023-01-28T11:55:44;13.10;;;9.63;;
12165;SDS011;6146;48.128;11.476;2023-01-28T11:58:36;11.43;;;8.80;;
12165;SDS011;6146;48.128;11.476;2023-01-28T12:02:08;10.60;;;8.00;;
12165;SDS011;6146;48.128;11.476;2023-01-28T12:07:11;11.27;;;9.63;;
12165;SDS011;6146;48.128;11.476;2023-01-28T12:21:05;12.43;;;9.03;;
12165;SDS011;6146;48.128;11.476;2023-01-28T12:29:23;11.73;;;9.37;;
12165;SDS011;6146;48.128;11.476;2023-01-28T12:40:10;18.63;;;14.07;;
12165;SDS011;6146;48.128;11.476;2023-01-28T12:42:47;18.77;;;14.30;;
12165;SDS011;6146;48.128;11.476;2023-01-28T12:48:15;12.20;;;9.70;;
12165;SDS011;6146;48.128;11.476;2023-01-28T12:50:47;13.03;;;9.93;;
12165;SDS011;6146;48.128;11.476;2023-01-28T12:53:20;14.70;;;11.00;;
12165;SDS011;6146;48.128;11.476;2023-01-28T12:56:04;12.30;;;10.87;;
12165;SDS011;6146;48.128;11.476;2023-01-28T12:58:52;15.03;;;11.40;;
12165;SDS011;6146;48.128;11.476;2023-01-28T13:04:37;15.70;;;11.00;;
12165;SDS011;6146;48.128;11.476;2023-01-28T13:07:25;13.33;;;10.30;;
12165;SDS011;6146;48.128;11.476;2023-01-28T13:12:40;15.53;;;10.63;;
12165;SDS011;6146;48.128;11.476;2023-01-28T13:15:14;12.93;;;10.80;;
12165;SDS011;6146;48.128;11.476;2023-01-28T13:20:36;13.13;;;9.97;;
12165;SDS011;6146;48.128;11.476;2023-01-28T13:26:25;11.13;;;9.77;;
12165;SDS011;6146;48.128;11.476;2023-01-28T13:28:56;12.27;;;9.70;;
12165;SDS011;6146;48.128;11.476;2023-01-28T13:31:37;13.57;;;10.33;;
12165;SDS011;6146;48.128;11.476;2023-01-28T13:34:04;13.73;;;11.13;;
12165;SDS011;6146;48.128;11.476;2023-01-28T13:36:41;11.67;;;9.90;;
12165;SDS011;6146;48.128;11.476;2023-01-28T13:44:18;12.60;;;10.30;;
12165;SDS011;6146;48.128;11.476;2023-01-28T13:46:50;13.00;;;9.57;;
12165;SDS011;6146;48.128;11.476;2023-01-28T13:49:29;13.13;;;10.83;;
12165;SDS011;6146;48.128;11.476;2023-01-28T13:54:54;11.20;;;9.13;;
12165;SDS011;6146;48.128;11.476;2023-01-28T13:57:44;10.93;;;9.33;;
12165;SDS011;6146;48.128;11.476;2023-01-28T14:20:35;13.73;;;10.50;;
12165;SDS011;6146;48.128;11.476;2023-01-28T14:23:15;15.33;;;11.27;;
12165;SDS011;6146;48.128;11.476;2023-01-28T14:28:11;14.13;;;9.47;;
12165;SDS011;6146;48.128;11.476;2023-01-28T14:30:50;15.63;;;11.37;;
12165;SDS011;6146;48.128;11.476;2023-01-28T14:33:19;15.20;;;11.07;;
12165;SDS011;6146;48.128;11.476;2023-01-28T14:35:47;12.03;;;8.93;;
12165;SDS011;6146;48.128;11.476;2023-01-28T14:38:17;13.57;;;10.60;;
12165;SDS011;6146;48.128;11.476;2023-01-28T14:40:47;13.67;;;10.60;;
12165;SDS011;6146;48.128;11.476;2023-01-28T14:43:15;14.33;;;10.77;;
12165;SDS011;6146;48.128;11.476;2023-01-28T14:48:49;12.90;;;10.33;;
12165;SDS011;6146;48.128;11.476;2023-01-28T14:51:45;15.27;;;10.83;;
12165;SDS011;6146;48.128;11.476;2023-01-28T14:57:18;14.13;;;9.67;;
12165;SDS011;6146;48.128;11.476;2023-01-28T14:59:52;13.67;;;9.77;;
12165;SDS011;6146;48.128;11.476;2023-01-28T15:02:23;13.50;;;9.83;;
12165;SDS011;6146;48.128;11.476;2023-01-28T15:04:50;12.20;;;9.97;;
12165;SDS011;6146;48.128;11.476;2023-01-28T15:10:02;12.03;;;10.13;;
12165;SDS011;6146;48.128;11.476;2023-01-28T15:12:38;13.03;;;9.57;;
12165;SDS011;6146;48.128;11.476;2023-01-28T15:15:29;12.23;;;9.77;;
12165;SDS011;6146;48.128;11.476;2023-01-28T15:17:53;12.80;;;9.90;;
12165;SDS011;6146;48.128;11.476;2023-01-28T15:20:21;15.83;;;9.83;;
12165;SDS011;6146;48.128;11.476;2023-01-28T15:22:49;11.67;;;9.50;;
12165;SDS011;6146;48.128;11.476;2023-01-28T15:25:20;12.17;;;9.97;;
12165;SDS011;6146;48.128;11.476;2023-01-28T15:27:48;11.93;;;10.23;;
12165;SDS011;6146;48.128;11.476;2023-01-28T15:30:23;12.70;;;9.93;;
12165;SDS011;6146;48.128;11.476;2023-01-28T15:32:57;14.50;;;9.73;;
12165;SDS011;6146;48.128;11.476;2023-01-28T15:35:23;13.40;;;10.53;;
12165;SDS011;6146;48.128;11.476;2023-01-28T15:37:48;12.10;;;10.23;;
12165;SDS011;6146;48.128;11.476;2023-01-28T15:40:17;11.77;;;8.80;;
12165;SDS011;6146;48.128;11.476;2023-01-28T15:42:45;15.77;;;10.77;;
12165;SDS011;6146;48.128;11.476;2023-01-28T15:45:21;14.57;;;10.60;;
12165;SDS011;6146;48.128;11.476;2023-01-28T15:47:49;12.10;;;9.80;;
12165;SDS011;6146;48.128;11.476;2023-01-28T15:50:17;13.20;;;9.57;;
12165;SDS011;6146;48.128;11.476;2023-01-28T15:52:48;14.07;;;10.10;;
12165;SDS011;6146;48.128;11.476;2023-01-28T15:56:02;11.80;;;9.37;;
12165;SDS011;6146;48.128;11.476;2023-01-28T15:58:19;14.13;;;10.53;;
12165;SDS011;6146;48.128;11.476;2023-01-28T16:00:50;10.87;;;8.97;;
12165;SDS011;6146;48.128;11.476;2023-01-28T16:03:32;12.73;;;9.67;;
12165;SDS011;6146;48.128;11.476;2023-01-28T16:06:00;13.27;;;9.07;;
12165;SDS011;6146;48.128;11.476;2023-01-28T16:11:22;17.13;;;14.80;;
12165;SDS011;6146;48.128;11.476;2023-01-28T16:13:50;12.57;;;10.30;;
12165;SDS011;6146;48.128;11.476;2023-01-28T16:16:23;17.17;;;13.37;;
12165;SDS011;6146;48.128;11.476;2023-01-28T16:19:01;12.57;;;9.50;;
12165;SDS011;6146;48.128;11.476;2023-01-28T16:21:31;14.97;;;10.93;;
12165;SDS011;6146;48.128;11.476;2023-01-28T16:24:03;13.87;;;9.73;;
12165;SDS011;6146;48.128;11.476;2023-01-28T16:26:54;14.10;;;10.10;;
12165;SDS011;6146;48.128;11.476;2023-01-28T16:29:21;14.00;;;10.10;;
12165;SDS011;6146;48.128;11.476;2023-01-28T16:31:46;14.70;;;10.00;;
12165;SDS011;6146;48.128;11.476;2023-01-28T16:34:12;13.47;;;10.37;;
12165;SDS011;6146;48.128;11.476;2023-01-28T16:36:37;16.13;;;11.53;;
12165;SDS011;6146;48.128;11.476;2023-01-28T16:39:03;14.07;;;10.43;;
12165;SDS011;6146;48.128;11.476;2023-01-28T16:41:31;14.97;;;11.43;;
12165;SDS011;6146;48.128;11.476;2023-01-28T16:43:58;15.07;;;11.17;;
12165;SDS011;6146;48.128;11.476;2023-01-28T16:46:29;16.10;;;11.03;;
12165;SDS011;6146;48.128;11.476;2023-01-28T16:48:55;17.80;;;13.63;;
12165;SDS011;6146;48.128;11.476;2023-01-28T16:51:21;15.07;;;11.20;;
12165;SDS011;6146;48.128;11.476;2023-01-28T16:53:46;16.63;;;11.23;;
12165;SDS011;6146;48.128;11.476;2023-01-28T16:56:14;15.50;;;11.80;;
12165;SDS011;6146;48.128;11.476;2023-01-28T16:58:42;14.53;;;10.73;;
12165;SDS011;6146;48.128;11.476;2023-01-28T17:01:08;16.57;;;10.63;;
12165;SDS011;6146;48.128;11.476;2023-01-28T17:03:35;18.07;;;11.77;;
12165;SDS011;6146;48.128;11.476;2023-01-28T17:06:01;13.73;;;10.70;;
12165;SDS011;6146;48.128;11.476;2023-01-28T17:08:27;15.67;;;10.77;;
12165;SDS011;6146;48.128;11.476;2023-01-28T17:10:53;16.50;;;11.10;;
12165;SDS011;6146;48.128;11.476;2023-01-28T17:13:19;14.47;;;11.10;;
12165;SDS011;6146;48.128;11.476;2023-01-28T17:15:45;14.40;;;10.67;;
12165;SDS011;6146;48.128;11.476;2023-01-28T17:18:10;15.57;;;11.47;;